Time;durP1;ratioP1;P1;durP2;ratioP2;P2;SDS_P1;SDS_P2;PMS_P1;PMS_P2;Temp;Humidity;BMP_temperature;BMP_pressure;BME280_temperature;BME280_humidity;BME280_pressure;Samples;Min_cycle;Max_cycle;Signal;HPM_P1;HPM_P2
2021/10/30 00:02:13;;;;;;;22.37;20.10;;;4.70;99.90;;;;;;5094054;28;20194;-76
2021/10/30 00:04:40;;;;;;;24.03;21.67;;;4.70;99.90;;;;;;5093648;28;20201;-77
2021/10/30 00:07:08;;;;;;;22.27;20.17;;;4.60;99.90;;;;;;5093932;28;20609;-77
2021/10/30 00:09:35;;;;;;;23.57;21.23;;;4.60;99.90;;;;;;5093453;28;20222;-77
2021/10/30 00:12:03;;;;;;;21.80;19.67;;;4.50;99.90;;;;;;5093632;28;20214;-77
2021/10/30 00:14:29;;;;;;;22.90;20.53;;;4.50;99.90;;;;;;5093611;28;20226;-76
2021/10/30 00:16:56;;;;;;;23.20;20.90;;;4.50;99.90;;;;;;5093787;28;20239;-76
2021/10/30 00:19:23;;;;;;;22.43;20.27;;;4.40;99.90;;;;;;5092948;28;20279;-77
2021/10/30 00:21:52;;;;;;;24.73;22.23;;;4.40;99.90;;;;;;5085338;28;20717;-76
2021/10/30 00:24:21;;;;;;;22.70;20.50;;;4.40;99.90;;;;;;5093526;28;20198;-77
2021/10/30 00:26:48;;;;;;;23.77;21.30;;;4.30;99.90;;;;;;5095142;28;20720;-76
2021/10/30 00:29:15;;;;;;;23.30;21.10;;;4.30;99.90;;;;;;5097439;28;20222;-77
2021/10/30 00:31:42;;;;;;;23.47;20.97;;;4.30;99.90;;;;;;5093472;28;20210;-77
2021/10/30 00:34:09;;;;;;;23.33;21.03;;;4.30;99.90;;;;;;5097813;28;20255;-76
2021/10/30 00:36:36;;;;;;;21.93;19.83;;;4.20;99.90;;;;;;5091954;28;20208;-77
2021/10/30 00:39:03;;;;;;;22.30;19.87;;;4.20;99.90;;;;;;5093197;28;20206;-77
2021/10/30 00:41:31;;;;;;;21.27;19.27;;;4.20;99.90;;;;;;5093253;28;20205;-76
2021/10/30 00:44:06;;;;;;;21.97;19.63;;;4.30;99.90;;;;;;5093239;28;20186;-77
2021/10/30 00:46:33;;;;;;;20.93;18.93;;;4.30;99.90;;;;;;5093217;28;20198;-77
2021/10/30 00:48:59;;;;;;;23.93;21.43;;;4.30;99.90;;;;;;5090175;28;20763;-76
2021/10/30 00:51:27;;;;;;;23.07;20.87;;;4.30;99.90;;;;;;5089607;28;20574;-77
2021/10/30 00:53:54;;;;;;;23.67;21.27;;;4.10;99.90;;;;;;5091891;28;20247;-76
2021/10/30 00:56:21;;;;;;;22.57;20.27;;;4.00;99.90;;;;;;5088871;28;20259;-76
2021/10/30 00:58:51;;;;;;;22.00;19.90;;;4.00;99.90;;;;;;5091373;28;20299;-76
2021/10/30 01:01:18;;;;;;;22.40;20.20;;;4.00;99.90;;;;;;5088583;28;20243;-77
2021/10/30 01:03:45;;;;;;;23.57;21.10;;;3.90;99.90;;;;;;5092806;28;20197;-77
2021/10/30 01:06:11;;;;;;;23.37;20.90;;;3.90;99.90;;;;;;5093042;28;20607;-76
2021/10/30 01:08:38;;;;;;;23.07;20.77;;;3.90;99.90;;;;;;5095144;28;20827;-78
2021/10/30 01:11:06;;;;;;;23.43;20.90;;;3.90;99.90;;;;;;5092715;28;20189;-77
2021/10/30 01:13:33;;;;;;;22.90;20.70;;;3.80;99.90;;;;;;5087302;28;20503;-77
2021/10/30 01:16:01;;;;;;;21.67;19.70;;;3.80;99.90;;;;;;5092662;28;20190;-76
2021/10/30 01:18:28;;;;;;;22.87;20.67;;;3.80;99.90;;;;;;5092161;28;20241;-75
2021/10/30 01:20:56;;;;;;;23.17;20.83;;;3.80;99.90;;;;;;5091577;28;20322;-76
2021/10/30 01:23:23;;;;;;;22.23;20.03;;;3.80;99.90;;;;;;5092393;28;20258;-76
2021/10/30 01:25:56;;;;;;;21.47;19.47;;;3.80;99.90;;;;;;5084068;28;20628;-77
2021/10/30 01:28:23;;;;;;;21.83;19.73;;;3.80;99.90;;;;;;5092125;28;20718;-77
2021/10/30 01:30:50;;;;;;;22.10;19.90;;;3.80;99.90;;;;;;5083491;28;20846;-76
2021/10/30 01:33:16;;;;;;;21.67;19.57;;;3.80;99.90;;;;;;5092120;28;20638;-77
2021/10/30 01:35:43;;;;;;;21.00;18.97;;;3.80;99.90;;;;;;5090942;28;20247;-77
2021/10/30 01:38:13;;;;;;;22.53;20.33;;;3.70;99.90;;;;;;5091826;28;20718;-77
2021/10/30 01:40:41;;;;;;;23.80;21.57;;;3.70;99.90;;;;;;5086111;28;20205;-75
2021/10/30 01:43:09;;;;;;;25.33;21.20;;;3.70;99.90;;;;;;5092142;28;20681;-77
2021/10/30 01:45:36;;;;;;;21.97;19.97;;;3.60;99.90;;;;;;5091929;28;20233;-77
2021/10/30 01:48:03;;;;;;;22.20;20.03;;;3.60;99.90;;;;;;5092067;28;20460;-77
2021/10/30 01:50:30;;;;;;;21.17;19.27;;;3.60;99.90;;;;;;5091975;28;20203;-76
2021/10/30 01:52:59;;;;;;;21.93;19.93;;;3.50;99.90;;;;;;5090515;28;20294;-77
2021/10/30 01:55:28;;;;;;;22.60;20.43;;;3.50;99.90;;;;;;5091753;28;20225;-77
2021/10/30 01:57:55;;;;;;;23.20;20.97;;;3.40;99.90;;;;;;5097856;28;20720;-77
2021/10/30 02:00:22;;;;;;;22.70;20.50;;;3.50;99.90;;;;;;5091910;28;20198;-76
2021/10/30 02:02:49;;;;;;;23.43;21.03;;;3.40;99.90;;;;;;5095191;28;20193;-77
2021/10/30 02:05:16;;;;;;;23.23;20.87;;;3.40;99.90;;;;;;5090612;28;20209;-77
2021/10/30 02:07:43;;;;;;;22.90;20.70;;;3.30;99.90;;;;;;5091617;28;20266;-79
2021/10/30 02:10:11;;;;;;;23.70;21.20;;;3.30;99.90;;;;;;5091732;28;20435;-76
2021/10/30 02:12:40;;;;;;;23.13;21.00;;;3.30;99.90;;;;;;5091461;28;20476;-77
2021/10/30 02:15:08;;;;;;;23.43;21.17;;;3.30;99.90;;;;;;5090531;28;20446;-76
2021/10/30 02:17:37;;;;;;;21.97;19.97;;;3.20;99.90;;;;;;5091304;28;20224;-77
2021/10/30 02:20:09;;;;;;;21.90;19.90;;;3.20;99.90;;;;;;5091524;28;20426;-77
2021/10/30 02:22:36;;;;;;;22.10;20.00;;;3.20;99.90;;;;;;5091713;28;20432;-76
2021/10/30 02:25:04;;;;;;;21.53;19.50;;;3.20;99.90;;;;;;5090283;28;20538;-76
2021/10/30 02:27:30;;;;;;;21.47;19.57;;;3.10;99.90;;;;;;5090166;28;20484;-77
2021/10/30 02:29:59;;;;;;;21.10;19.20;;;3.10;99.90;;;;;;5091335;28;20242;-78
2021/10/30 02:32:27;;;;;;;22.33;20.27;;;3.20;99.90;;;;;;5090132;28;20468;-77
2021/10/30 02:34:54;;;;;;;22.13;19.93;;;3.10;99.90;;;;;;5096703;28;20846;-77
2021/10/30 02:37:20;;;;;;;21.33;19.43;;;3.10;99.90;;;;;;5090204;28;20262;-77
2021/10/30 02:39:47;;;;;;;20.90;19.00;;;3.00;99.90;;;;;;5093032;28;20486;-76
2021/10/30 02:42:14;;;;;;;20.97;19.17;;;3.00;99.90;;;;;;5090958;28;20457;-76
2021/10/30 02:44:41;;;;;;;21.20;19.07;;;3.00;99.90;;;;;;5095511;28;20493;-76
2021/10/30 02:47:09;;;;;;;20.40;18.63;;;3.10;99.90;;;;;;5095574;28;20440;-77
2021/10/30 02:49:37;;;;;;;22.67;20.53;;;3.10;99.90;;;;;;5089107;28;20502;-77
2021/10/30 02:52:05;;;;;;;21.30;19.40;;;3.10;99.90;;;;;;5090275;28;20186;-78
2021/10/30 02:54:32;;;;;;;21.57;19.60;;;3.10;99.90;;;;;;5094626;28;20516;-77
2021/10/30 02:56:58;;;;;;;19.77;18.13;;;3.10;99.90;;;;;;5096596;28;20462;-79
2021/10/30 02:59:25;;;;;;;21.53;19.57;;;3.10;99.90;;;;;;5085859;28;20479;-77
2021/10/30 03:01:52;;;;;;;21.67;19.50;;;3.10;99.90;;;;;;5092678;28;20451;-76
2021/10/30 03:04:20;;;;;;;21.63;19.53;;;3.10;99.90;;;;;;5091308;28;20204;-76
2021/10/30 03:06:47;;;;;;;20.23;18.43;;;3.10;99.90;;;;;;5084632;28;20955;-77
2021/10/30 03:09:14;;;;;;;21.30;19.47;;;3.10;99.90;;;;;;5093672;28;20479;-77
2021/10/30 03:11:40;;;;;;;21.30;19.40;;;3.10;99.90;;;;;;5097235;28;20874;-77
2021/10/30 03:14:07;;;;;;;20.87;18.97;;;3.10;99.90;;;;;;5095989;28;20688;-76
2021/10/30 03:16:34;;;;;;;20.67;18.87;;;3.10;99.90;;;;;;5095000;28;20513;-76
2021/10/30 03:19:01;;;;;;;21.17;19.27;;;3.00;99.90;;;;;;5090486;28;20274;-76
2021/10/30 03:21:30;;;;;;;20.63;18.73;;;3.00;99.90;;;;;;5093728;28;20955;-76
2021/10/30 03:23:57;;;;;;;21.53;19.60;;;2.90;99.90;;;;;;5093121;28;20883;-77
2021/10/30 03:26:24;;;;;;;21.03;19.00;;;2.90;99.90;;;;;;5097025;28;20989;-78
2021/10/30 03:28:51;;;;;;;21.93;19.90;;;3.00;99.90;;;;;;5076467;28;20468;-78
2021/10/30 03:31:18;;;;;;;21.53;19.53;;;2.90;99.90;;;;;;5084422;28;20447;-79
2021/10/30 03:33:45;;;;;;;21.07;19.20;;;2.90;99.90;;;;;;5091758;28;20536;-76
2021/10/30 03:36:12;;;;;;;21.57;19.63;;;2.90;99.90;;;;;;5093421;28;20207;-76
2021/10/30 03:38:40;;;;;;;21.37;19.43;;;2.90;99.90;;;;;;5088815;28;20471;-77
2021/10/30 03:41:07;;;;;;;21.43;19.53;;;2.90;99.90;;;;;;5097061;28;20943;-76
2021/10/30 03:43:35;;;;;;;21.47;19.57;;;2.90;99.90;;;;;;5091158;28;20461;-77
2021/10/30 03:46:01;;;;;;;19.93;18.07;;;2.90;99.90;;;;;;5094500;28;20435;-77
2021/10/30 03:48:28;;;;;;;20.73;18.93;;;2.90;99.90;;;;;;5090344;28;20472;-76
2021/10/30 03:50:55;;;;;;;20.70;18.90;;;2.90;99.90;;;;;;5094385;28;21045;-76
2021/10/30 03:53:22;;;;;;;20.10;18.40;;;2.90;99.90;;;;;;5088273;28;21098;-76
2021/10/30 03:55:51;;;;;;;19.70;18.07;;;2.90;99.90;;;;;;5087243;28;20428;-76
2021/10/30 03:58:18;;;;;;;21.20;19.40;;;2.90;99.90;;;;;;5089408;28;20464;-76
2021/10/30 04:00:45;;;;;;;21.10;19.40;;;2.80;99.90;;;;;;5084642;28;20497;-76
2021/10/30 04:03:12;;;;;;;20.43;18.37;;;2.80;99.90;;;;;;5087165;28;20444;-76
2021/10/30 04:05:39;;;;;;;21.00;19.17;;;2.80;99.90;;;;;;5094195;28;20435;-75
2021/10/30 04:08:07;;;;;;;21.37;19.47;;;2.80;99.90;;;;;;5093853;28;20267;-76
2021/10/30 04:10:34;;;;;;;22.00;20.00;;;2.80;99.90;;;;;;5092758;28;20977;-76
2021/10/30 04:13:02;;;;;;;21.50;19.50;;;2.90;99.90;;;;;;5093672;28;20467;-75
2021/10/30 04:15:29;;;;;;;21.43;19.43;;;2.80;99.90;;;;;;5093233;28;20455;-76
2021/10/30 04:20:24;;;;;;;20.23;18.57;;;2.80;99.90;;;;;;5050490;28;20454;-76
2021/10/30 04:22:51;;;;;;;20.33;18.53;;;2.70;99.90;;;;;;5040583;28;20475;-78
2021/10/30 04:25:18;;;;;;;20.50;18.70;;;2.70;99.90;;;;;;5050760;28;20491;-79
2021/10/30 04:27:45;;;;;;;21.47;19.60;;;2.70;99.90;;;;;;5052964;28;20444;-77
2021/10/30 04:30:13;;;;;;;21.47;19.40;;;2.70;99.90;;;;;;5051319;28;20472;-77
2021/10/30 04:32:42;;;;;;;20.83;18.93;;;2.70;99.90;;;;;;5052665;28;20191;-78
2021/10/30 04:35:11;;;;;;;21.03;19.03;;;2.60;99.90;;;;;;5034911;28;20796;-78
2021/10/30 04:37:38;;;;;;;19.57;17.83;;;2.60;99.90;;;;;;5052902;28;20438;-78
2021/10/30 04:40:07;;;;;;;20.83;18.93;;;2.60;99.90;;;;;;5052496;28;20457;-78
2021/10/30 04:42:34;;;;;;;21.80;19.77;;;2.60;99.90;;;;;;5050829;28;20434;-78
2021/10/30 04:45:01;;;;;;;20.13;18.33;;;2.60;99.90;;;;;;5052640;28;20196;-78
2021/10/30 04:47:29;;;;;;;20.60;18.70;;;2.60;99.90;;;;;;5034604;28;20467;-78
2021/10/30 04:49:56;;;;;;;18.30;16.50;;;2.60;99.90;;;;;;5051755;28;20540;-78
2021/10/30 04:52:23;;;;;;;19.30;17.50;;;2.60;99.90;;;;;;5034604;28;20499;-78
2021/10/30 04:54:49;;;;;;;20.23;18.33;;;2.50;99.90;;;;;;5052464;28;20535;-78
2021/10/30 04:57:16;;;;;;;19.53;17.73;;;2.50;99.90;;;;;;5034503;28;20968;-79
2021/10/30 04:59:43;;;;;;;21.67;19.73;;;2.60;99.90;;;;;;5052013;28;20459;-78
2021/10/30 05:02:10;;;;;;;21.37;19.30;;;2.70;99.90;;;;;;5053082;28;20484;-78
2021/10/30 05:04:39;;;;;;;22.17;20.20;;;2.70;99.90;;;;;;5034791;28;20521;-79
2021/10/30 05:07:06;;;;;;;22.07;20.07;;;2.60;99.90;;;;;;5051404;28;20473;-78
2021/10/30 05:09:32;;;;;;;23.00;20.90;;;2.70;99.90;;;;;;5033844;28;20462;-78
2021/10/30 05:11:59;;;;;;;20.77;19.07;;;2.70;99.90;;;;;;5034236;28;20454;-80
2021/10/30 05:14:26;;;;;;;21.07;19.13;;;2.60;99.90;;;;;;5035786;28;20486;-78
2021/10/30 05:16:53;;;;;;;22.53;20.50;;;2.60;99.90;;;;;;5048015;28;21011;-78
2021/10/30 05:19:20;;;;;;;21.83;19.97;;;2.70;99.90;;;;;;5054824;28;20481;-78
2021/10/30 05:21:48;;;;;;;22.37;20.40;;;2.60;99.90;;;;;;5055147;28;20445;-78
2021/10/30 05:24:16;;;;;;;21.30;19.40;;;2.60;99.90;;;;;;5051631;28;20471;-79
2021/10/30 05:26:43;;;;;;;20.80;19.10;;;2.50;99.90;;;;;;5039870;28;20452;-80
2021/10/30 05:29:10;;;;;;;21.17;19.10;;;2.50;99.90;;;;;;5037411;28;20476;-79
2021/10/30 05:31:37;;;;;;;21.67;19.70;;;2.60;99.90;;;;;;5036110;28;20588;-78
2021/10/30 05:34:04;;;;;;;21.80;19.80;;;2.60;99.90;;;;;;5052747;28;20287;-78
2021/10/30 05:36:50;;;;;;;21.03;19.17;;;2.70;99.90;;;;;;5054576;28;20441;-79
2021/10/30 05:39:23;;;;;;;21.33;19.43;;;2.70;99.90;;;;;;5052051;28;20477;-80
2021/10/30 05:41:50;;;;;;;23.87;21.63;;;2.70;99.90;;;;;;5049721;28;20970;-79
2021/10/30 05:44:17;;;;;;;23.53;21.33;;;2.70;99.90;;;;;;5054170;28;20456;-80
2021/10/30 05:46:44;;;;;;;22.97;20.83;;;2.70;99.90;;;;;;5049392;28;20442;-77
2021/10/30 05:49:15;;;;;;;22.17;20.27;;;2.60;99.90;;;;;;5045408;28;20478;-77
2021/10/30 05:51:42;;;;;;;21.10;19.37;;;2.60;99.90;;;;;;5048823;28;20569;-77
2021/10/30 05:54:10;;;;;;;23.23;19.77;;;2.50;99.90;;;;;;5049931;28;20577;-76
2021/10/30 05:56:37;;;;;;;22.07;20.17;;;2.50;99.90;;;;;;5054690;28;20253;-79
2021/10/30 05:59:04;;;;;;;21.97;20.10;;;2.50;99.90;;;;;;5033344;28;20473;-77
2021/10/30 06:01:32;;;;;;;20.60;18.60;;;2.50;99.90;;;;;;5051228;28;20434;-78
2021/10/30 06:03:59;;;;;;;21.20;19.20;;;2.50;99.90;;;;;;5034080;28;20450;-77
2021/10/30 06:06:25;;;;;;;21.90;20.10;;;2.50;99.90;;;;;;5053312;28;20449;-77
2021/10/30 06:08:52;;;;;;;21.40;19.60;;;2.50;99.90;;;;;;5051791;28;20468;-78
2021/10/30 06:11:20;;;;;;;21.40;19.50;;;2.50;99.90;;;;;;5055978;28;20540;-79
2021/10/30 06:13:48;;;;;;;20.77;19.07;;;2.60;99.90;;;;;;5054805;28;20464;-79
2021/10/30 06:16:15;;;;;;;20.77;18.90;;;2.50;99.90;;;;;;5051695;28;20860;-77
2021/10/30 06:18:43;;;;;;;21.00;19.20;;;2.60;99.90;;;;;;5030706;28;20489;-77
2021/10/30 06:21:10;;;;;;;21.77;19.87;;;2.50;99.90;;;;;;5030108;28;20445;-77
2021/10/30 06:23:37;;;;;;;21.90;19.83;;;2.60;99.90;;;;;;5052180;28;20191;-77
2021/10/30 06:26:04;;;;;;;20.07;18.37;;;2.60;99.90;;;;;;5051915;28;20521;-77
2021/10/30 06:28:32;;;;;;;19.87;17.97;;;2.60;99.90;;;;;;5049083;28;20544;-77
2021/10/30 06:30:59;;;;;;;20.27;18.57;;;2.70;99.90;;;;;;5052026;28;20521;-78
2021/10/30 06:33:26;;;;;;;19.40;17.70;;;2.60;99.90;;;;;;5045746;28;20450;-78
2021/10/30 06:35:52;;;;;;;19.73;17.93;;;2.70;99.90;;;;;;5034588;28;20199;-78
2021/10/30 06:38:19;;;;;;;20.27;18.57;;;2.80;99.90;;;;;;5033015;28;20470;-77
2021/10/30 06:40:46;;;;;;;19.83;18.20;;;2.80;99.90;;;;;;5050069;28;20468;-77
2021/10/30 06:43:13;;;;;;;19.57;17.97;;;2.80;99.90;;;;;;5031159;28;20548;-78
2021/10/30 06:45:45;;;;;;;19.83;18.13;;;2.80;99.90;;;;;;5030925;28;20453;-77
2021/10/30 06:48:12;;;;;;;19.57;17.87;;;2.90;99.90;;;;;;5048931;28;20204;-78
2021/10/30 06:50:39;;;;;;;18.30;16.90;;;2.80;99.90;;;;;;5031671;28;20511;-78
2021/10/30 06:53:05;;;;;;;18.97;17.23;;;2.80;99.90;;;;;;5032040;28;20667;-77
2021/10/30 06:55:32;;;;;;;18.60;17.00;;;2.80;99.90;;;;;;5049859;28;20905;-78
2021/10/30 06:57:59;;;;;;;18.53;17.03;;;2.90;99.90;;;;;;5050440;28;20433;-79
2021/10/30 07:00:26;;;;;;;18.77;16.97;;;3.00;99.90;;;;;;5032992;28;20461;-78
2021/10/30 07:02:54;;;;;;;18.70;17.20;;;3.10;99.90;;;;;;5050580;28;20191;-77
2021/10/30 07:05:22;;;;;;;17.77;16.37;;;3.20;99.90;;;;;;5033254;28;20206;-79
2021/10/30 07:07:48;;;;;;;17.83;16.23;;;3.30;99.90;;;;;;5045804;28;20617;-77
2021/10/30 07:10:16;;;;;;;18.30;16.80;;;3.50;99.90;;;;;;5032941;28;20227;-77
2021/10/30 07:12:43;;;;;;;19.43;17.87;;;3.60;99.90;;;;;;5030808;28;20195;-78
2021/10/30 07:15:12;;;;;;;18.13;16.73;;;3.70;99.90;;;;;;5049189;28;20711;-77
2021/10/30 07:17:39;;;;;;;19.03;17.30;;;3.80;99.90;;;;;;5048543;28;20199;-78
2021/10/30 07:20:09;;;;;;;19.30;17.70;;;3.90;99.90;;;;;;5047831;28;20227;-77
2021/10/30 07:22:43;;;;;;;19.33;17.83;;;4.00;99.90;;;;;;5050207;28;20191;-78
2021/10/30 07:25:11;;;;;;;19.50;17.80;;;4.10;99.90;;;;;;5050712;28;20226;-79
2021/10/30 07:27:39;;;;;;;18.77;17.23;;;4.20;99.90;;;;;;5049760;28;20245;-77
2021/10/30 07:30:08;;;;;;;19.83;18.00;;;4.30;99.90;;;;;;5050657;28;20246;-77
2021/10/30 07:32:35;;;;;;;17.50;16.00;;;4.50;99.90;;;;;;5053663;28;20195;-76
2021/10/30 07:35:03;;;;;;;17.70;16.10;;;4.80;99.90;;;;;;5035622;28;20631;-77
2021/10/30 07:37:33;;;;;;;20.53;18.83;;;4.90;99.90;;;;;;5053658;28;20253;-77
2021/10/30 07:40:01;;;;;;;18.60;16.90;;;5.00;99.90;;;;;;5053262;28;20225;-79
2021/10/30 07:42:28;;;;;;;17.70;16.30;;;5.10;99.90;;;;;;5053853;28;20195;-76
2021/10/30 07:44:55;;;;;;;11.57;9.70;;;5.20;99.90;;;;;;5051087;28;20187;-77
2021/10/30 07:47:22;;;;;;;13.20;11.90;;;5.50;99.90;;;;;;5033898;28;20254;-76
2021/10/30 07:49:49;;;;;;;15.77;14.27;;;5.80;99.90;;;;;;5053081;28;20223;-77
2021/10/30 07:52:16;;;;;;;13.80;12.60;;;6.00;99.90;;;;;;5051937;28;20201;-77
2021/10/30 07:54:44;;;;;;;16.50;15.10;;;6.10;99.90;;;;;;5053120;28;20540;-77
2021/10/30 07:57:12;;;;;;;9.23;8.27;;;6.20;99.90;;;;;;5046050;28;20204;-77
2021/10/30 07:59:39;;;;;;;10.97;8.93;;;6.40;99.90;;;;;;5053249;28;20724;-77
2021/10/30 08:02:07;;;;;;;10.00;8.40;;;6.50;99.90;;;;;;5035464;28;20259;-77
2021/10/30 08:04:34;;;;;;;12.03;10.00;;;6.70;99.90;;;;;;5052042;28;20228;-77
2021/10/30 08:07:01;;;;;;;18.97;17.27;;;6.90;99.90;;;;;;5035144;28;20200;-77
2021/10/30 08:09:28;;;;;;;18.47;16.87;;;7.00;99.90;;;;;;5051603;28;20226;-77
2021/10/30 08:11:56;;;;;;;18.80;17.10;;;7.00;99.90;;;;;;5053267;28;20277;-78
2021/10/30 08:14:24;;;;;;;16.10;14.80;;;7.20;99.90;;;;;;5051991;28;20217;-77
2021/10/30 08:16:51;;;;;;;15.47;14.27;;;7.50;99.90;;;;;;5046870;28;20224;-78
2021/10/30 08:19:18;;;;;;;14.37;13.17;;;7.70;99.90;;;;;;5049855;28;20241;-78
2021/10/30 08:21:45;;;;;;;15.30;13.97;;;7.80;99.90;;;;;;5053261;28;20202;-77
2021/10/30 08:24:12;;;;;;;17.90;16.47;;;7.90;99.90;;;;;;5035089;28;20247;-77
2021/10/30 08:26:39;;;;;;;18.27;16.67;;;8.00;99.90;;;;;;5053030;28;20683;-78
2021/10/30 08:29:08;;;;;;;17.37;15.83;;;8.10;99.90;;;;;;5052469;28;20221;-78
2021/10/30 08:31:35;;;;;;;15.97;14.67;;;8.00;99.90;;;;;;5051402;28;20631;-77
2021/10/30 08:34:02;;;;;;;17.77;15.87;;;8.10;99.90;;;;;;5052479;28;20249;-77
2021/10/30 08:36:29;;;;;;;16.80;15.20;;;8.20;99.90;;;;;;5034854;28;20204;-77
2021/10/30 08:38:56;;;;;;;14.97;13.73;;;8.20;99.90;;;;;;5052399;28;20210;-77
2021/10/30 08:41:24;;;;;;;13.73;12.30;;;8.20;99.90;;;;;;5051391;28;20211;-77
2021/10/30 08:43:50;;;;;;;14.00;12.70;;;8.20;99.90;;;;;;5052279;28;20589;-77
2021/10/30 08:46:19;;;;;;;10.73;9.10;;;8.20;99.90;;;;;;5052477;28;20746;-77
2021/10/30 08:48:46;;;;;;;17.00;15.50;;;8.20;99.90;;;;;;5052177;28;20592;-78
2021/10/30 08:51:14;;;;;;;10.27;9.13;;;8.30;99.90;;;;;;5034388;28;20207;-77
2021/10/30 08:53:41;;;;;;;12.63;11.53;;;8.30;99.90;;;;;;5052443;28;20194;-77
2021/10/30 08:56:08;;;;;;;13.00;11.80;;;8.40;99.90;;;;;;5034390;28;20751;-77
2021/10/30 08:58:36;;;;;;;14.10;12.73;;;8.50;99.90;;;;;;5051961;28;20219;-77
2021/10/30 09:01:06;;;;;;;15.83;14.43;;;8.60;99.90;;;;;;5034204;28;20206;-77
2021/10/30 09:03:35;;;;;;;14.67;13.23;;;8.60;99.90;;;;;;5051027;28;20215;-78
2021/10/30 09:06:04;;;;;;;11.90;9.53;;;8.50;99.90;;;;;;5034086;28;20199;-78
2021/10/30 09:08:31;;;;;;;12.10;9.67;;;8.60;99.90;;;;;;5033932;28;20274;-77
2021/10/30 09:11:02;;;;;;;12.67;10.67;;;8.50;99.90;;;;;;5052508;28;20199;-77
2021/10/30 09:13:30;;;;;;;11.43;10.30;;;8.40;99.90;;;;;;5034186;28;20187;-77
2021/10/30 09:15:59;;;;;;;11.57;9.57;;;8.50;99.90;;;;;;5051585;28;20268;-77
2021/10/30 09:18:29;;;;;;;9.40;8.33;;;8.60;99.90;;;;;;5050149;28;20712;-77
2021/10/30 09:20:58;;;;;;;10.77;9.63;;;8.60;99.90;;;;;;5034125;28;20202;-77
2021/10/30 09:23:29;;;;;;;9.33;8.20;;;8.60;99.90;;;;;;5034014;28;20582;-77
2021/10/30 09:26:00;;;;;;;11.23;8.27;;;8.60;99.90;;;;;;5034042;28;20251;-77
2021/10/30 09:28:29;;;;;;;9.23;8.00;;;8.60;99.90;;;;;;5050244;28;20231;-77
2021/10/30 09:31:02;;;;;;;11.33;8.10;;;8.50;99.90;;;;;;5044897;28;20583;-77
2021/10/30 09:33:31;;;;;;;11.13;8.77;;;8.40;99.90;;;;;;5031541;28;20202;-77
2021/10/30 09:36:07;;;;;;;12.93;11.63;;;8.40;99.90;;;;;;5055621;28;20234;-78
2021/10/30 09:38:37;;;;;;;12.73;11.60;;;8.40;99.90;;;;;;5053314;28;20218;-77
2021/10/30 09:41:05;;;;;;;10.63;9.63;;;8.40;99.90;;;;;;5051533;28;20195;-77
2021/10/30 09:43:32;;;;;;;9.10;8.20;;;8.40;99.90;;;;;;5051583;28;20203;-77
2021/10/30 09:46:09;;;;;;;13.90;12.77;;;8.40;99.90;;;;;;5051508;28;20253;-77
2021/10/30 09:48:41;;;;;;;15.30;14.00;;;8.30;99.90;;;;;;5050134;28;20616;-76
2021/10/30 09:51:09;;;;;;;13.27;12.07;;;8.30;99.90;;;;;;5033345;28;20200;-77
2021/10/30 09:53:39;;;;;;;12.23;11.03;;;8.30;99.90;;;;;;5033032;28;20261;-77
2021/10/30 09:56:07;;;;;;;12.57;11.30;;;8.30;99.90;;;;;;5033270;28;20215;-77
2021/10/30 09:58:39;;;;;;;12.93;11.63;;;8.30;99.90;;;;;;5051214;28;20218;-77
2021/10/30 10:01:12;;;;;;;11.43;10.33;;;8.40;99.90;;;;;;5033363;28;20341;-77
2021/10/30 10:03:40;;;;;;;14.53;12.13;;;8.40;99.90;;;;;;5051168;28;20664;-78
2021/10/30 10:06:10;;;;;;;13.90;12.70;;;8.40;99.90;;;;;;5050053;28;20289;-78
2021/10/30 10:08:41;;;;;;;13.27;12.07;;;8.40;99.90;;;;;;5051069;28;20219;-78
2021/10/30 10:11:09;;;;;;;11.87;10.70;;;8.50;99.90;;;;;;5051355;28;20206;-78
2021/10/30 10:13:40;;;;;;;12.67;11.50;;;8.50;99.90;;;;;;5033580;28;20251;-77
2021/10/30 10:16:12;;;;;;;11.80;10.70;;;8.50;99.90;;;;;;5050837;28;20203;-77
2021/10/30 10:18:39;;;;;;;9.77;8.77;;;8.50;99.90;;;;;;5052031;28;20241;-77
2021/10/30 10:21:06;;;;;;;11.00;9.10;;;8.50;99.90;;;;;;5051071;28;20615;-77
2021/10/30 10:23:35;;;;;;;9.20;8.30;;;8.50;99.90;;;;;;5033155;28;20206;-77
2021/10/30 10:26:02;;;;;;;11.93;7.60;;;8.50;99.90;;;;;;5033250;28;20203;-77
2021/10/30 10:28:34;;;;;;;8.80;7.90;;;8.50;99.90;;;;;;5050722;28;20715;-77
2021/10/30 10:31:04;;;;;;;9.30;8.30;;;8.60;99.90;;;;;;5045651;28;20669;-77
2021/10/30 10:33:32;;;;;;;10.33;8.47;;;8.60;99.90;;;;;;5030558;28;20215;-77
2021/10/30 10:36:33;;;;;;;12.63;10.60;;;8.60;99.90;;;;;;5049688;28;20273;-78
2021/10/30 10:39:20;;;;;;;12.97;10.43;;;8.60;99.90;;;;;;5065338;28;20218;-77
2021/10/30 10:41:55;;;;;;;10.10;7.57;;;8.60;99.90;;;;;;5033126;28;20191;-77
2021/10/30 10:44:58;;;;;;;10.60;8.00;;;8.70;99.90;;;;;;5051214;28;20206;-77
2021/10/30 10:48:02;;;;;;;8.90;7.10;;;8.70;99.90;;;;;;5046150;28;20199;-78
2021/10/30 10:50:36;;;;;;;12.13;10.93;;;8.70;99.90;;;;;;5047755;28;20203;-77
2021/10/30 10:53:24;;;;;;;12.83;11.53;;;8.80;99.90;;;;;;5050383;28;20194;-77
2021/10/30 10:56:14;;;;;;;11.00;9.83;;;8.80;99.90;;;;;;5041785;28;20212;-77
2021/10/30 10:59:10;;;;;;;9.63;8.63;;;8.80;99.90;;;;;;5062988;28;20230;-77
2021/10/30 11:02:02;;;;;;;11.20;10.03;;;8.90;99.90;;;;;;5032378;28;20718;-78
2021/10/30 11:04:29;;;;;;;9.67;8.77;;;8.90;99.90;;;;;;5051938;28;20272;-77
2021/10/30 11:07:14;;;;;;;8.50;7.40;;;8.90;99.90;;;;;;5054904;28;20195;-77
2021/10/30 11:09:52;;;;;;;9.10;8.20;;;9.00;99.90;;;;;;5036388;28;20481;-77
2021/10/30 11:12:28;;;;;;;11.20;10.27;;;9.00;99.90;;;;;;5054533;28;20249;-77
2021/10/30 11:15:08;;;;;;;11.87;10.77;;;9.00;99.90;;;;;;5036753;28;20191;-77
2021/10/30 11:17:44;;;;;;;11.53;10.53;;;9.10;99.90;;;;;;5036250;28;20206;-77
2021/10/30 11:20:12;;;;;;;11.53;9.70;;;9.00;99.90;;;;;;5054203;28;20227;-77
2021/10/30 11:23:00;;;;;;;9.23;8.27;;;9.00;99.90;;;;;;5054763;28;20203;-77
2021/10/30 11:25:28;;;;;;;9.40;8.40;;;9.00;99.90;;;;;;5036390;28;20226;-77
2021/10/30 11:27:57;;;;;;;8.93;7.30;;;9.00;99.90;;;;;;5035972;28;20257;-77
2021/10/30 11:30:35;;;;;;;9.47;7.40;;;8.90;99.90;;;;;;5054132;28;20203;-77
2021/10/30 11:33:20;;;;;;;9.97;8.03;;;8.90;99.90;;;;;;5045987;28;20191;-78
2021/10/30 11:36:01;;;;;;;8.63;7.17;;;8.90;99.90;;;;;;5052348;28;20218;-79
2021/10/30 11:38:28;;;;;;;9.33;7.60;;;8.90;99.90;;;;;;5053865;28;20219;-77
2021/10/30 11:40:57;;;;;;;9.10;7.30;;;9.00;99.90;;;;;;5036010;28;20207;-76
2021/10/30 11:43:27;;;;;;;9.43;7.10;;;9.00;99.90;;;;;;5053742;28;20203;-77
2021/10/30 11:45:57;;;;;;;9.17;7.07;;;9.00;99.90;;;;;;5053527;28;20192;-77
2021/10/30 11:48:34;;;;;;;10.83;9.73;;;9.00;99.90;;;;;;5035475;28;20219;-77
2021/10/30 11:51:01;;;;;;;8.87;7.50;;;9.00;99.90;;;;;;5049954;28;20202;-77
2021/10/30 11:53:30;;;;;;;13.40;12.10;;;8.90;99.90;;;;;;5053143;28;20248;-77
2021/10/30 11:56:00;;;;;;;8.83;7.43;;;8.90;99.90;;;;;;5053488;28;20211;-77
2021/10/30 11:58:43;;;;;;;13.43;12.13;;;8.90;99.90;;;;;;5035361;28;20305;-77
2021/10/30 12:01:21;;;;;;;10.17;8.23;;;8.80;99.90;;;;;;5035119;28;20210;-78
2021/10/30 12:03:48;;;;;;;11.17;9.70;;;8.80;99.90;;;;;;5053781;28;20619;-79
2021/10/30 12:06:17;;;;;;;12.53;11.17;;;8.80;99.90;;;;;;5036941;28;20205;-80
2021/10/30 12:08:43;;;;;;;16.53;14.93;;;8.70;99.90;;;;;;5054847;28;20234;-80
2021/10/30 12:11:10;;;;;;;13.77;12.43;;;8.70;99.90;;;;;;5055258;28;20199;-80
2021/10/30 12:13:38;;;;;;;13.23;11.87;;;8.70;99.90;;;;;;5036907;28;20206;-80
2021/10/30 12:16:08;;;;;;;13.20;11.50;;;8.80;99.90;;;;;;5037728;28;20215;-78
2021/10/30 12:18:35;;;;;;;13.70;11.87;;;8.80;99.90;;;;;;5035796;28;20231;-78
2021/10/30 12:21:02;;;;;;;17.77;16.07;;;8.80;99.90;;;;;;5054464;28;20272;-80
2021/10/30 12:23:29;;;;;;;14.53;12.87;;;8.80;99.90;;;;;;5054113;28;20199;-80
2021/10/30 12:26:02;;;;;;;15.87;14.37;;;8.90;99.90;;;;;;5054847;28;20682;-81
2021/10/30 12:28:35;;;;;;;17.93;16.33;;;9.00;99.90;;;;;;5052880;28;20223;-78
2021/10/30 12:31:04;;;;;;;13.93;11.87;;;9.10;99.90;;;;;;5034568;28;20299;-77
2021/10/30 12:33:35;;;;;;;15.27;13.77;;;9.20;99.90;;;;;;5035819;28;20199;-78
2021/10/30 12:36:02;;;;;;;15.03;13.53;;;9.30;99.90;;;;;;5054055;28;20214;-77
2021/10/30 12:38:29;;;;;;;12.00;10.27;;;9.40;99.90;;;;;;5053560;28;20230;-80
2021/10/30 12:40:57;;;;;;;13.23;10.63;;;9.50;99.90;;;;;;5036509;28;20199;-79
2021/10/30 12:43:27;;;;;;;13.73;9.60;;;9.50;99.90;;;;;;5054181;28;20203;-80
2021/10/30 12:45:56;;;;;;;11.17;9.73;;;9.60;99.90;;;;;;5054680;28;20191;-79
2021/10/30 12:48:26;;;;;;;12.53;9.73;;;9.70;99.90;;;;;;5036291;28;20233;-80
2021/10/30 12:50:57;;;;;;;13.73;10.83;;;9.70;99.90;;;;;;5028924;28;20694;-79